sensor_id;sensor_type;location;lat;lon;timestamp;P1;durP1;ratioP1;P2;durP2;ratioP2
10416;SDS011;5255;49.432;8.680;2022-07-23T00:01:54;5.97;;;4.40;;
10416;SDS011;5255;49.432;8.680;2022-07-23T00:04:21;5.10;;;4.60;;
10416;SDS011;5255;49.432;8.680;2022-07-23T00:06:48;5.80;;;4.28;;
10416;SDS011;5255;49.432;8.680;2022-07-23T00:09:15;5.68;;;3.92;;
10416;SDS011;5255;49.432;8.680;2022-07-23T00:11:42;5.97;;;4.95;;
10416;SDS011;5255;49.432;8.680;2022-07-23T00:14:09;5.65;;;4.35;;
10416;SDS011;5255;49.432;8.680;2022-07-23T00:16:36;4.75;;;4.28;;
10416;SDS011;5255;49.432;8.680;2022-07-23T00:19:05;5.45;;;4.40;;
10416;SDS011;5255;49.432;8.680;2022-07-23T00:21:32;7.75;;;4.45;;
10416;SDS011;5255;49.432;8.680;2022-07-23T00:23:59;9.88;;;4.88;;
10416;SDS011;5255;49.432;8.680;2022-07-23T00:26:26;5.65;;;4.72;;
10416;SDS011;5255;49.432;8.680;2022-07-23T00:28:53;6.80;;;4.95;;
10416;SDS011;5255;49.432;8.680;2022-07-23T00:31:20;7.25;;;5.40;;
10416;SDS011;5255;49.432;8.680;2022-07-23T00:33:47;6.03;;;5.22;;
10416;SDS011;5255;49.432;8.680;2022-07-23T00:36:16;6.13;;;5.43;;
10416;SDS011;5255;49.432;8.680;2022-07-23T00:38:43;6.45;;;4.90;;
10416;SDS011;5255;49.432;8.680;2022-07-23T00:41:10;7.35;;;6.07;;
10416;SDS011;5255;49.432;8.680;2022-07-23T00:43:37;7.50;;;4.93;;
10416;SDS011;5255;49.432;8.680;2022-07-23T00:46:04;5.97;;;4.75;;
10416;SDS011;5255;49.432;8.680;2022-07-23T00:48:31;6.55;;;4.75;;
10416;SDS011;5255;49.432;8.680;2022-07-23T00:50:58;5.53;;;5.03;;
10416;SDS011;5255;49.432;8.680;2022-07-23T00:53:27;8.20;;;4.82;;
10416;SDS011;5255;49.432;8.680;2022-07-23T00:55:55;8.02;;;5.07;;
10416;SDS011;5255;49.432;8.680;2022-07-23T00:58:23;7.50;;;4.88;;
10416;SDS011;5255;49.432;8.680;2022-07-23T01:00:50;5.57;;;4.70;;
10416;SDS011;5255;49.432;8.680;2022-07-23T01:03:18;5.15;;;4.10;;
10416;SDS011;5255;49.432;8.680;2022-07-23T01:05:45;5.57;;;4.68;;
10416;SDS011;5255;49.432;8.680;2022-07-23T01:08:12;7.93;;;4.88;;
10416;SDS011;5255;49.432;8.680;2022-07-23T01:10:42;6.00;;;4.90;;
10416;SDS011;5255;49.432;8.680;2022-07-23T01:13:10;7.05;;;5.28;;
10416;SDS011;5255;49.432;8.680;2022-07-23T01:15:37;6.22;;;4.80;;
10416;SDS011;5255;49.432;8.680;2022-07-23T01:18:05;6.25;;;4.70;;
10416;SDS011;5255;49.432;8.680;2022-07-23T01:20:33;5.55;;;4.45;;
10416;SDS011;5255;49.432;8.680;2022-07-23T01:23:01;5.43;;;4.38;;
10416;SDS011;5255;49.432;8.680;2022-07-23T01:25:29;5.60;;;5.00;;
10416;SDS011;5255;49.432;8.680;2022-07-23T01:27:56;6.38;;;4.65;;
10416;SDS011;5255;49.432;8.680;2022-07-23T01:30:23;8.65;;;4.18;;
10416;SDS011;5255;49.432;8.680;2022-07-23T01:32:50;5.75;;;4.47;;
10416;SDS011;5255;49.432;8.680;2022-07-23T01:35:17;9.45;;;4.70;;
10416;SDS011;5255;49.432;8.680;2022-07-23T01:37:44;5.07;;;4.57;;
10416;SDS011;5255;49.432;8.680;2022-07-23T01:40:13;6.25;;;4.82;;
10416;SDS011;5255;49.432;8.680;2022-07-23T01:42:40;7.00;;;4.70;;
10416;SDS011;5255;49.432;8.680;2022-07-23T01:45:07;5.20;;;4.03;;
10416;SDS011;5255;49.432;8.680;2022-07-23T01:47:35;6.22;;;4.28;;
10416;SDS011;5255;49.432;8.680;2022-07-23T01:50:02;4.60;;;4.05;;
10416;SDS011;5255;49.432;8.680;2022-07-23T01:52:30;5.63;;;3.95;;
10416;SDS011;5255;49.432;8.680;2022-07-23T01:54:57;6.47;;;4.10;;
10416;SDS011;5255;49.432;8.680;2022-07-23T01:57:25;4.05;;;3.65;;
10416;SDS011;5255;49.432;8.680;2022-07-23T01:59:53;4.20;;;3.80;;
10416;SDS011;5255;49.432;8.680;2022-07-23T02:02:20;4.38;;;3.97;;
10416;SDS011;5255;49.432;8.680;2022-07-23T02:04:47;6.38;;;3.95;;
10416;SDS011;5255;49.432;8.680;2022-07-23T02:07:14;6.18;;;4.45;;
10416;SDS011;5255;49.432;8.680;2022-07-23T02:09:41;4.75;;;4.07;;
10416;SDS011;5255;49.432;8.680;2022-07-23T02:12:08;4.93;;;4.03;;
10416;SDS011;5255;49.432;8.680;2022-07-23T02:14:37;6.65;;;4.68;;
10416;SDS011;5255;49.432;8.680;2022-07-23T02:17:04;8.80;;;4.78;;
10416;SDS011;5255;49.432;8.680;2022-07-23T02:19:31;8.20;;;4.22;;
10416;SDS011;5255;49.432;8.680;2022-07-23T02:21:58;5.93;;;4.28;;
10416;SDS011;5255;49.432;8.680;2022-07-23T02:24:25;6.32;;;4.10;;
10416;SDS011;5255;49.432;8.680;2022-07-23T02:26:52;5.82;;;4.40;;
10416;SDS011;5255;49.432;8.680;2022-07-23T02:29:19;8.23;;;4.45;;
10416;SDS011;5255;49.432;8.680;2022-07-23T02:31:48;4.75;;;4.10;;
10416;SDS011;5255;49.432;8.680;2022-07-23T02:34:15;5.40;;;4.63;;
10416;SDS011;5255;49.432;8.680;2022-07-23T02:36:42;4.35;;;3.88;;
10416;SDS011;5255;49.432;8.680;2022-07-23T02:39:09;5.95;;;4.43;;
10416;SDS011;5255;49.432;8.680;2022-07-23T02:41:37;5.45;;;4.18;;
10416;SDS011;5255;49.432;8.680;2022-07-23T02:44:04;5.25;;;4.25;;
10416;SDS011;5255;49.432;8.680;2022-07-23T02:46:31;4.65;;;3.95;;
10416;SDS011;5255;49.432;8.680;2022-07-23T02:48:59;5.70;;;4.25;;
10416;SDS011;5255;49.432;8.680;2022-07-23T02:51:26;5.78;;;3.92;;
10416;SDS011;5255;49.432;8.680;2022-07-23T02:53:53;5.28;;;4.70;;
10416;SDS011;5255;49.432;8.680;2022-07-23T02:56:20;4.80;;;3.50;;
10416;SDS011;5255;49.432;8.680;2022-07-23T02:58:48;4.03;;;3.63;;
10416;SDS011;5255;49.432;8.680;2022-07-23T03:01:15;4.68;;;4.10;;
10416;SDS011;5255;49.432;8.680;2022-07-23T03:03:42;5.65;;;4.28;;
10416;SDS011;5255;49.432;8.680;2022-07-23T03:06:11;4.68;;;3.80;;
10416;SDS011;5255;49.432;8.680;2022-07-23T03:08:38;5.93;;;4.05;;
10416;SDS011;5255;49.432;8.680;2022-07-23T03:11:06;4.28;;;3.58;;
10416;SDS011;5255;49.432;8.680;2022-07-23T03:13:36;4.45;;;4.03;;
10416;SDS011;5255;49.432;8.680;2022-07-23T03:16:03;6.28;;;4.28;;
10416;SDS011;5255;49.432;8.680;2022-07-23T03:18:31;4.80;;;3.88;;
10416;SDS011;5255;49.432;8.680;2022-07-23T03:20:58;5.18;;;4.03;;
10416;SDS011;5255;49.432;8.680;2022-07-23T03:23:27;5.45;;;4.18;;
10416;SDS011;5255;49.432;8.680;2022-07-23T03:25:54;5.32;;;4.13;;
10416;SDS011;5255;49.432;8.680;2022-07-23T03:28:22;5.30;;;3.92;;
10416;SDS011;5255;49.432;8.680;2022-07-23T03:30:49;5.60;;;4.18;;
10416;SDS011;5255;49.432;8.680;2022-07-23T03:33:16;6.07;;;3.88;;
10416;SDS011;5255;49.432;8.680;2022-07-23T03:35:44;6.53;;;3.63;;
10416;SDS011;5255;49.432;8.680;2022-07-23T03:38:12;5.35;;;4.30;;
10416;SDS011;5255;49.432;8.680;2022-07-23T03:40:41;5.15;;;4.18;;
10416;SDS011;5255;49.432;8.680;2022-07-23T03:43:08;4.93;;;4.10;;
10416;SDS011;5255;49.432;8.680;2022-07-23T03:45:35;4.38;;;3.97;;
10416;SDS011;5255;49.432;8.680;2022-07-23T03:48:02;4.10;;;3.63;;
10416;SDS011;5255;49.432;8.680;2022-07-23T03:50:29;5.03;;;3.78;;
10416;SDS011;5255;49.432;8.680;2022-07-23T03:52:56;4.57;;;3.50;;
10416;SDS011;5255;49.432;8.680;2022-07-23T03:55:24;6.93;;;3.88;;
10416;SDS011;5255;49.432;8.680;2022-07-23T03:57:53;5.63;;;3.67;;
10416;SDS011;5255;49.432;8.680;2022-07-23T04:00:20;5.20;;;3.85;;
10416;SDS011;5255;49.432;8.680;2022-07-23T04:02:47;3.72;;;3.38;;
10416;SDS011;5255;49.432;8.680;2022-07-23T04:05:14;8.13;;;3.75;;
10416;SDS011;5255;49.432;8.680;2022-07-23T04:07:41;5.78;;;3.72;;
10416;SDS011;5255;49.432;8.680;2022-07-23T04:10:08;5.05;;;3.85;;
10416;SDS011;5255;49.432;8.680;2022-07-23T04:12:35;8.60;;;4.10;;
10416;SDS011;5255;49.432;8.680;2022-07-23T04:15:06;5.18;;;4.13;;
10416;SDS011;5255;49.432;8.680;2022-07-23T04:17:34;7.05;;;4.05;;
10416;SDS011;5255;49.432;8.680;2022-07-23T04:20:02;6.22;;;3.72;;
10416;SDS011;5255;49.432;8.680;2022-07-23T04:22:29;4.70;;;4.20;;
10416;SDS011;5255;49.432;8.680;2022-07-23T04:24:56;4.78;;;3.70;;
10416;SDS011;5255;49.432;8.680;2022-07-23T04:27:23;4.03;;;3.70;;
10416;SDS011;5255;49.432;8.680;2022-07-23T04:29:50;4.95;;;3.90;;
10416;SDS011;5255;49.432;8.680;2022-07-23T04:32:19;5.40;;;3.25;;
10416;SDS011;5255;49.432;8.680;2022-07-23T04:34:46;6.22;;;3.97;;
10416;SDS011;5255;49.432;8.680;2022-07-23T04:37:13;5.47;;;4.10;;
10416;SDS011;5255;49.432;8.680;2022-07-23T04:39:40;5.97;;;3.85;;
10416;SDS011;5255;49.432;8.680;2022-07-23T04:42:08;5.40;;;4.40;;
10416;SDS011;5255;49.432;8.680;2022-07-23T04:44:35;5.68;;;4.07;;
10416;SDS011;5255;49.432;8.680;2022-07-23T04:47:02;4.82;;;4.18;;
10416;SDS011;5255;49.432;8.680;2022-07-23T04:49:30;7.07;;;4.45;;
10416;SDS011;5255;49.432;8.680;2022-07-23T04:51:58;8.55;;;4.28;;
10416;SDS011;5255;49.432;8.680;2022-07-23T04:54:25;4.85;;;3.97;;
10416;SDS011;5255;49.432;8.680;2022-07-23T04:56:52;5.82;;;3.97;;
10416;SDS011;5255;49.432;8.680;2022-07-23T04:59:19;6.25;;;4.13;;
10416;SDS011;5255;49.432;8.680;2022-07-23T05:01:46;7.40;;;4.10;;
10416;SDS011;5255;49.432;8.680;2022-07-23T05:04:13;5.57;;;4.57;;
10416;SDS011;5255;49.432;8.680;2022-07-23T05:06:41;5.82;;;3.88;;
10416;SDS011;5255;49.432;8.680;2022-07-23T05:09:09;5.80;;;4.32;;
10416;SDS011;5255;49.432;8.680;2022-07-23T05:11:36;6.65;;;4.07;;
10416;SDS011;5255;49.432;8.680;2022-07-23T05:14:03;6.03;;;4.38;;
10416;SDS011;5255;49.432;8.680;2022-07-23T05:16:30;5.45;;;3.85;;
10416;SDS011;5255;49.432;8.680;2022-07-23T05:18:57;7.18;;;4.82;;
10416;SDS011;5255;49.432;8.680;2022-07-23T05:21:24;6.32;;;4.60;;
10416;SDS011;5255;49.432;8.680;2022-07-23T05:23:53;6.38;;;4.43;;
10416;SDS011;5255;49.432;8.680;2022-07-23T05:26:20;8.43;;;4.85;;
10416;SDS011;5255;49.432;8.680;2022-07-23T05:28:47;6.78;;;4.53;;
10416;SDS011;5255;49.432;8.680;2022-07-23T05:31:14;6.05;;;4.45;;
10416;SDS011;5255;49.432;8.680;2022-07-23T05:33:41;5.60;;;5.10;;
10416;SDS011;5255;49.432;8.680;2022-07-23T05:36:09;5.80;;;4.75;;
10416;SDS011;5255;49.432;8.680;2022-07-23T05:38:36;8.35;;;4.82;;
10416;SDS011;5255;49.432;8.680;2022-07-23T05:41:05;6.72;;;4.72;;
10416;SDS011;5255;49.432;8.680;2022-07-23T05:43:32;6.35;;;4.90;;
10416;SDS011;5255;49.432;8.680;2022-07-23T05:45:59;6.78;;;4.40;;
10416;SDS011;5255;49.432;8.680;2022-07-23T05:48:26;7.72;;;5.00;;
10416;SDS011;5255;49.432;8.680;2022-07-23T05:50:54;5.85;;;4.78;;
10416;SDS011;5255;49.432;8.680;2022-07-23T05:53:21;7.60;;;4.78;;
10416;SDS011;5255;49.432;8.680;2022-07-23T05:55:48;6.78;;;5.40;;
10416;SDS011;5255;49.432;8.680;2022-07-23T05:58:16;7.47;;;5.22;;
10416;SDS011;5255;49.432;8.680;2022-07-23T06:00:43;7.47;;;4.90;;
10416;SDS011;5255;49.432;8.680;2022-07-23T06:03:11;6.68;;;4.60;;
10416;SDS011;5255;49.432;8.680;2022-07-23T06:05:38;7.43;;;4.95;;
10416;SDS011;5255;49.432;8.680;2022-07-23T06:08:05;6.22;;;5.13;;
10416;SDS011;5255;49.432;8.680;2022-07-23T06:10:32;6.25;;;5.00;;
10416;SDS011;5255;49.432;8.680;2022-07-23T06:12:59;7.18;;;5.20;;
10416;SDS011;5255;49.432;8.680;2022-07-23T06:15:28;8.10;;;5.63;;
10416;SDS011;5255;49.432;8.680;2022-07-23T06:17:56;9.52;;;6.22;;
10416;SDS011;5255;49.432;8.680;2022-07-23T06:20:23;9.77;;;5.20;;
10416;SDS011;5255;49.432;8.680;2022-07-23T06:22:51;7.85;;;5.00;;
10416;SDS011;5255;49.432;8.680;2022-07-23T06:25:18;8.50;;;6.00;;
10416;SDS011;5255;49.432;8.680;2022-07-23T06:27:46;6.53;;;5.22;;
10416;SDS011;5255;49.432;8.680;2022-07-23T06:30:14;7.50;;;5.07;;
10416;SDS011;5255;49.432;8.680;2022-07-23T06:32:44;9.25;;;5.70;;
10416;SDS011;5255;49.432;8.680;2022-07-23T06:35:11;8.18;;;5.70;;
10416;SDS011;5255;49.432;8.680;2022-07-23T06:37:38;9.18;;;5.50;;
10416;SDS011;5255;49.432;8.680;2022-07-23T06:40:05;7.38;;;5.60;;
10416;SDS011;5255;49.432;8.680;2022-07-23T06:42:33;6.53;;;5.35;;
10416;SDS011;5255;49.432;8.680;2022-07-23T06:45:02;8.70;;;5.70;;
10416;SDS011;5255;49.432;8.680;2022-07-23T06:47:29;13.23;;;6.10;;
10416;SDS011;5255;49.432;8.680;2022-07-23T06:49:57;9.38;;;6.07;;
10416;SDS011;5255;49.432;8.680;2022-07-23T06:52:25;8.05;;;5.97;;
10416;SDS011;5255;49.432;8.680;2022-07-23T06:54:53;8.20;;;5.82;;
10416;SDS011;5255;49.432;8.680;2022-07-23T06:57:20;8.63;;;6.47;;
10416;SDS011;5255;49.432;8.680;2022-07-23T06:59:47;9.10;;;6.30;;
10416;SDS011;5255;49.432;8.680;2022-07-23T07:02:14;9.77;;;5.90;;
10416;SDS011;5255;49.432;8.680;2022-07-23T07:04:41;6.80;;;5.18;;
10416;SDS011;5255;49.432;8.680;2022-07-23T07:07:10;6.53;;;5.40;;
10416;SDS011;5255;49.432;8.680;2022-07-23T07:09:38;8.25;;;5.40;;
10416;SDS011;5255;49.432;8.680;2022-07-23T07:12:05;7.25;;;5.57;;
10416;SDS011;5255;49.432;8.680;2022-07-23T07:14:33;9.13;;;6.03;;
10416;SDS011;5255;49.432;8.680;2022-07-23T07:17:00;7.45;;;5.55;;
10416;SDS011;5255;49.432;8.680;2022-07-23T07:19:28;6.53;;;5.15;;
10416;SDS011;5255;49.432;8.680;2022-07-23T07:21:55;7.38;;;5.65;;
10416;SDS011;5255;49.432;8.680;2022-07-23T07:24:23;9.15;;;6.28;;
10416;SDS011;5255;49.432;8.680;2022-07-23T07:26:51;6.68;;;5.95;;
10416;SDS011;5255;49.432;8.680;2022-07-23T07:29:18;9.95;;;6.38;;
10416;SDS011;5255;49.432;8.680;2022-07-23T07:31:46;8.43;;;6.18;;
10416;SDS011;5255;49.432;8.680;2022-07-23T07:34:13;7.63;;;5.57;;
10416;SDS011;5255;49.432;8.680;2022-07-23T07:36:41;7.78;;;5.80;;
10416;SDS011;5255;49.432;8.680;2022-07-23T07:39:08;7.47;;;5.95;;
10416;SDS011;5255;49.432;8.680;2022-07-23T07:41:37;8.40;;;6.40;;
10416;SDS011;5255;49.432;8.680;2022-07-23T07:44:05;8.50;;;6.43;;
10416;SDS011;5255;49.432;8.680;2022-07-23T07:46:32;8.27;;;6.10;;
10416;SDS011;5255;49.432;8.680;2022-07-23T07:48:59;7.10;;;5.78;;
10416;SDS011;5255;49.432;8.680;2022-07-23T07:51:26;8.88;;;6.10;;
10416;SDS011;5255;49.432;8.680;2022-07-23T07:53:53;9.35;;;6.40;;
10416;SDS011;5255;49.432;8.680;2022-07-23T07:56:21;7.68;;;6.05;;
10416;SDS011;5255;49.432;8.680;2022-07-23T07:58:49;8.45;;;5.75;;
10416;SDS011;5255;49.432;8.680;2022-07-23T08:01:17;7.05;;;5.93;;
10416;SDS011;5255;49.432;8.680;2022-07-23T08:03:45;7.72;;;5.78;;
10416;SDS011;5255;49.432;8.680;2022-07-23T08:06:12;6.40;;;5.70;;
10416;SDS011;5255;49.432;8.680;2022-07-23T08:08:39;7.88;;;5.90;;
10416;SDS011;5255;49.432;8.680;2022-07-23T08:11:06;7.60;;;6.05;;
10416;SDS011;5255;49.432;8.680;2022-07-23T08:13:34;8.98;;;5.60;;
10416;SDS011;5255;49.432;8.680;2022-07-23T08:16:03;7.25;;;5.90;;
10416;SDS011;5255;49.432;8.680;2022-07-23T08:18:31;7.70;;;5.38;;
10416;SDS011;5255;49.432;8.680;2022-07-23T08:20:58;6.68;;;5.05;;
10416;SDS011;5255;49.432;8.680;2022-07-23T08:23:25;7.63;;;5.22;;
10416;SDS011;5255;49.432;8.680;2022-07-23T08:25:53;7.00;;;5.57;;
10416;SDS011;5255;49.432;8.680;2022-07-23T08:28:21;7.25;;;6.22;;
10416;SDS011;5255;49.432;8.680;2022-07-23T08:30:49;7.85;;;5.63;;
10416;SDS011;5255;49.432;8.680;2022-07-23T08:33:17;6.68;;;5.47;;
10416;SDS011;5255;49.432;8.680;2022-07-23T08:35:49;7.50;;;5.40;;
10416;SDS011;5255;49.432;8.680;2022-07-23T08:38:18;7.72;;;5.72;;
10416;SDS011;5255;49.432;8.680;2022-07-23T08:40:47;7.53;;;5.32;;
10416;SDS011;5255;49.432;8.680;2022-07-23T08:43:17;4.97;;;4.30;;
10416;SDS011;5255;49.432;8.680;2022-07-23T08:45:47;7.00;;;5.40;;
10416;SDS011;5255;49.432;8.680;2022-07-23T08:48:16;6.85;;;4.78;;
10416;SDS011;5255;49.432;8.680;2022-07-23T08:50:50;6.25;;;5.40;;
10416;SDS011;5255;49.432;8.680;2022-07-23T08:53:19;6.93;;;5.38;;
10416;SDS011;5255;49.432;8.680;2022-07-23T08:55:48;8.63;;;5.60;;
10416;SDS011;5255;49.432;8.680;2022-07-23T08:58:17;6.88;;;5.22;;
10416;SDS011;5255;49.432;8.680;2022-07-23T09:00:45;9.38;;;5.68;;
10416;SDS011;5255;49.432;8.680;2022-07-23T09:03:15;6.80;;;5.15;;
10416;SDS011;5255;49.432;8.680;2022-07-23T09:05:45;6.82;;;5.38;;
10416;SDS011;5255;49.432;8.680;2022-07-23T09:08:13;5.95;;;5.05;;
10416;SDS011;5255;49.432;8.680;2022-07-23T09:10:45;6.82;;;5.70;;
10416;SDS011;5255;49.432;8.680;2022-07-23T09:13:24;7.43;;;5.80;;
10416;SDS011;5255;49.432;8.680;2022-07-23T09:15:53;9.27;;;5.25;;
10416;SDS011;5255;49.432;8.680;2022-07-23T09:18:29;7.38;;;5.65;;
10416;SDS011;5255;49.432;8.680;2022-07-23T09:21:09;6.50;;;5.55;;
10416;SDS011;5255;49.432;8.680;2022-07-23T09:23:51;7.20;;;5.85;;
10416;SDS011;5255;49.432;8.680;2022-07-23T09:26:26;8.68;;;5.82;;
10416;SDS011;5255;49.432;8.680;2022-07-23T09:29:02;6.40;;;4.95;;
10416;SDS011;5255;49.432;8.680;2022-07-23T09:31:32;6.75;;;5.47;;
10416;SDS011;5255;49.432;8.680;2022-07-23T09:34:12;8.27;;;5.90;;
10416;SDS011;5255;49.432;8.680;2022-07-23T09:36:40;7.65;;;5.50;;
10416;SDS011;5255;49.432;8.680;2022-07-23T09:39:10;7.28;;;5.85;;
10416;SDS011;5255;49.432;8.680;2022-07-23T09:41:39;7.82;;;6.10;;
10416;SDS011;5255;49.432;8.680;2022-07-23T09:44:13;7.47;;;6.07;;
10416;SDS011;5255;49.432;8.680;2022-07-23T09:46:43;7.15;;;6.13;;
10416;SDS011;5255;49.432;8.680;2022-07-23T09:49:15;8.70;;;5.82;;
10416;SDS011;5255;49.432;8.680;2022-07-23T09:51:48;8.48;;;6.22;;
10416;SDS011;5255;49.432;8.680;2022-07-23T09:54:29;7.75;;;5.75;;
10416;SDS011;5255;49.432;8.680;2022-07-23T09:56:59;8.50;;;6.55;;
10416;SDS011;5255;49.432;8.680;2022-07-23T09:59:31;6.32;;;5.13;;
10416;SDS011;5255;49.432;8.680;2022-07-23T10:01:59;6.45;;;5.45;;
10416;SDS011;5255;49.432;8.680;2022-07-23T10:04:28;8.55;;;5.65;;
10416;SDS011;5255;49.432;8.680;2022-07-23T10:06:56;10.32;;;6.70;;
10416;SDS011;5255;49.432;8.680;2022-07-23T10:09:30;8.90;;;5.65;;
10416;SDS011;5255;49.432;8.680;2022-07-23T10:12:00;6.00;;;5.15;;
10416;SDS011;5255;49.432;8.680;2022-07-23T10:14:33;7.35;;;5.60;;
10416;SDS011;5255;49.432;8.680;2022-07-23T10:17:00;5.95;;;4.88;;
10416;SDS011;5255;49.432;8.680;2022-07-23T10:19:28;6.70;;;5.45;;
10416;SDS011;5255;49.432;8.680;2022-07-23T10:21:57;7.43;;;5.72;;
10416;SDS011;5255;49.432;8.680;2022-07-23T10:27:39;7.25;;;6.13;;
10416;SDS011;5255;49.432;8.680;2022-07-23T10:30:18;8.48;;;6.18;;
10416;SDS011;5255;49.432;8.680;2022-07-23T10:32:53;7.13;;;5.82;;
10416;SDS011;5255;49.432;8.680;2022-07-23T10:35:31;8.80;;;5.97;;
10416;SDS011;5255;49.432;8.680;2022-07-23T10:38:07;7.18;;;5.30;;
10416;SDS011;5255;49.432;8.680;2022-07-23T10:40:50;8.35;;;6.13;;
10416;SDS011;5255;49.432;8.680;2022-07-23T10:43:20;7.80;;;5.95;;
10416;SDS011;5255;49.432;8.680;2022-07-23T10:45:48;5.60;;;5.03;;
10416;SDS011;5255;49.432;8.680;2022-07-23T10:48:17;7.35;;;5.18;;
10416;SDS011;5255;49.432;8.680;2022-07-23T11:02:37;6.15;;;5.35;;
10416;SDS011;5255;49.432;8.680;2022-07-23T11:05:05;6.22;;;5.10;;
10416;SDS011;5255;49.432;8.680;2022-07-23T11:07:33;7.72;;;5.40;;
10416;SDS011;5255;49.432;8.680;2022-07-23T11:10:01;7.75;;;5.95;;
10416;SDS011;5255;49.432;8.680;2022-07-23T11:12:34;6.90;;;5.50;;
10416;SDS011;5255;49.432;8.680;2022-07-23T11:15:05;6.72;;;5.35;;
10416;SDS011;5255;49.432;8.680;2022-07-23T11:17:36;7.85;;;4.85;;
10416;SDS011;5255;49.432;8.680;2022-07-23T11:20:14;7.35;;;5.18;;
10416;SDS011;5255;49.432;8.680;2022-07-23T11:22:47;7.80;;;5.43;;
10416;SDS011;5255;49.432;8.680;2022-07-23T11:25:29;6.10;;;5.43;;
10416;SDS011;5255;49.432;8.680;2022-07-23T11:28:11;6.40;;;4.85;;
10416;SDS011;5255;49.432;8.680;2022-07-23T11:30:42;5.88;;;5.13;;
10416;SDS011;5255;49.432;8.680;2022-07-23T11:33:17;6.70;;;5.43;;
10416;SDS011;5255;49.432;8.680;2022-07-23T11:35:46;6.47;;;5.25;;
10416;SDS011;5255;49.432;8.680;2022-07-23T11:38:16;7.03;;;5.63;;
10416;SDS011;5255;49.432;8.680;2022-07-23T11:40:45;7.60;;;5.10;;
10416;SDS011;5255;49.432;8.680;2022-07-23T11:43:16;5.45;;;4.68;;
10416;SDS011;5255;49.432;8.680;2022-07-23T11:45:45;6.18;;;5.53;;
10416;SDS011;5255;49.432;8.680;2022-07-23T11:48:17;6.57;;;5.30;;
10416;SDS011;5255;49.432;8.680;2022-07-23T11:50:46;5.40;;;4.68;;
10416;SDS011;5255;49.432;8.680;2022-07-23T11:53:13;7.60;;;5.65;;
10416;SDS011;5255;49.432;8.680;2022-07-23T11:55:48;8.00;;;5.53;;
10416;SDS011;5255;49.432;8.680;2022-07-23T11:58:16;7.00;;;6.30;;
10416;SDS011;5255;49.432;8.680;2022-07-23T12:00:43;8.80;;;5.95;;
10416;SDS011;5255;49.432;8.680;2022-07-23T12:03:11;5.95;;;5.18;;
10416;SDS011;5255;49.432;8.680;2022-07-23T12:05:38;6.90;;;5.68;;
10416;SDS011;5255;49.432;8.680;2022-07-23T12:08:06;5.63;;;4.97;;
10416;SDS011;5255;49.432;8.680;2022-07-23T12:10:36;5.78;;;5.18;;
10416;SDS011;5255;49.432;8.680;2022-07-23T12:13:04;6.38;;;5.22;;
10416;SDS011;5255;49.432;8.680;2022-07-23T12:15:37;6.45;;;5.53;;
10416;SDS011;5255;49.432;8.680;2022-07-23T12:18:06;7.15;;;5.78;;
10416;SDS011;5255;49.432;8.680;2022-07-23T12:20:35;8.93;;;6.82;;
10416;SDS011;5255;49.432;8.680;2022-07-23T12:23:04;6.50;;;5.90;;
10416;SDS011;5255;49.432;8.680;2022-07-23T12:25:33;10.32;;;5.47;;
10416;SDS011;5255;49.432;8.680;2022-07-23T12:28:03;6.78;;;5.57;;
10416;SDS011;5255;49.432;8.680;2022-07-23T12:30:33;6.95;;;5.93;;
10416;SDS011;5255;49.432;8.680;2022-07-23T12:33:06;6.78;;;5.63;;
10416;SDS011;5255;49.432;8.680;2022-07-23T12:35:35;5.90;;;5.30;;
10416;SDS011;5255;49.432;8.680;2022-07-23T12:38:06;7.32;;;5.72;;
10416;SDS011;5255;49.432;8.680;2022-07-23T12:40:35;6.72;;;6.03;;
10416;SDS011;5255;49.432;8.680;2022-07-23T12:43:04;8.55;;;5.72;;
10416;SDS011;5255;49.432;8.680;2022-07-23T12:45:45;6.82;;;5.53;;
10416;SDS011;5255;49.432;8.680;2022-07-23T12:48:17;5.32;;;4.82;;
10416;SDS011;5255;49.432;8.680;2022-07-23T12:50:50;5.50;;;4.82;;
10416;SDS011;5255;49.432;8.680;2022-07-23T12:53:23;7.47;;;5.78;;
10416;SDS011;5255;49.432;8.680;2022-07-23T12:55:57;5.60;;;5.10;;
10416;SDS011;5255;49.432;8.680;2022-07-23T12:58:25;8.50;;;5.38;;
10416;SDS011;5255;49.432;8.680;2022-07-23T13:01:00;6.82;;;5.20;;
10416;SDS011;5255;49.432;8.680;2022-07-23T13:03:32;8.25;;;5.97;;
10416;SDS011;5255;49.432;8.680;2022-07-23T13:06:05;7.47;;;6.57;;
10416;SDS011;5255;49.432;8.680;2022-07-23T13:08:35;9.15;;;6.88;;
10416;SDS011;5255;49.432;8.680;2022-07-23T13:11:04;8.25;;;6.88;;
10416;SDS011;5255;49.432;8.680;2022-07-23T13:13:33;7.40;;;6.53;;
10416;SDS011;5255;49.432;8.680;2022-07-23T13:16:01;6.88;;;6.18;;
10416;SDS011;5255;49.432;8.680;2022-07-23T13:18:32;7.20;;;6.45;;
10416;SDS011;5255;49.432;8.680;2022-07-23T13:20:59;9.63;;;7.25;;
10416;SDS011;5255;49.432;8.680;2022-07-23T13:23:27;7.82;;;6.38;;
10416;SDS011;5255;49.432;8.680;2022-07-23T13:25:57;7.05;;;6.07;;
10416;SDS011;5255;49.432;8.680;2022-07-23T13:28:25;6.78;;;6.10;;
10416;SDS011;5255;49.432;8.680;2022-07-23T13:30:53;6.53;;;5.80;;
10416;SDS011;5255;49.432;8.680;2022-07-23T13:33:22;7.60;;;6.50;;
10416;SDS011;5255;49.432;8.680;2022-07-23T13:35:53;7.20;;;6.50;;
10416;SDS011;5255;49.432;8.680;2022-07-23T13:38:20;10.07;;;6.43;;
10416;SDS011;5255;49.432;8.680;2022-07-23T13:40:48;8.00;;;6.53;;
10416;SDS011;5255;49.432;8.680;2022-07-23T13:43:18;8.65;;;6.22;;
10416;SDS011;5255;49.432;8.680;2022-07-23T13:45:46;7.90;;;6.32;;
10416;SDS011;5255;49.432;8.680;2022-07-23T13:48:13;8.98;;;6.82;;
10416;SDS011;5255;49.432;8.680;2022-07-23T13:50:41;7.82;;;7.05;;
10416;SDS011;5255;49.432;8.680;2022-07-23T13:53:11;7.35;;;6.22;;
10416;SDS011;5255;49.432;8.680;2022-07-23T13:55:41;8.20;;;6.55;;
10416;SDS011;5255;49.432;8.680;2022-07-23T13:58:10;7.38;;;6.10;;
10416;SDS011;5255;49.432;8.680;2022-07-23T14:00:39;6.75;;;5.45;;
10416;SDS011;5255;49.432;8.680;2022-07-23T14:03:08;7.03;;;6.18;;
10416;SDS011;5255;49.432;8.680;2022-07-23T14:05:35;8.27;;;6.35;;
10416;SDS011;5255;49.432;8.680;2022-07-23T14:08:03;8.25;;;6.00;;
10416;SDS011;5255;49.432;8.680;2022-07-23T14:10:32;7.22;;;5.70;;
10416;SDS011;5255;49.432;8.680;2022-07-23T14:12:59;6.72;;;5.63;;
10416;SDS011;5255;49.432;8.680;2022-07-23T14:15:27;7.20;;;5.50;;
10416;SDS011;5255;49.432;8.680;2022-07-23T14:17:56;8.43;;;6.50;;
10416;SDS011;5255;49.432;8.680;2022-07-23T14:20:23;7.28;;;5.95;;
10416;SDS011;5255;49.432;8.680;2022-07-23T14:22:51;7.15;;;5.90;;
10416;SDS011;5255;49.432;8.680;2022-07-23T14:25:20;6.65;;;5.93;;
10416;SDS011;5255;49.432;8.680;2022-07-23T14:27:49;7.90;;;5.57;;
10416;SDS011;5255;49.432;8.680;2022-07-23T14:30:16;6.63;;;5.95;;
10416;SDS011;5255;49.432;8.680;2022-07-23T14:32:46;6.45;;;5.72;;
10416;SDS011;5255;49.432;8.680;2022-07-23T14:35:13;5.63;;;5.03;;
10416;SDS011;5255;49.432;8.680;2022-07-23T14:37:40;7.85;;;5.90;;
10416;SDS011;5255;49.432;8.680;2022-07-23T14:40:08;5.78;;;5.18;;
10416;SDS011;5255;49.432;8.680;2022-07-23T14:42:35;6.85;;;5.60;;
10416;SDS011;5255;49.432;8.680;2022-07-23T14:45:04;5.57;;;4.93;;
10416;SDS011;5255;49.432;8.680;2022-07-23T14:47:32;6.30;;;5.65;;
10416;SDS011;5255;49.432;8.680;2022-07-23T14:49:59;7.15;;;5.68;;
10416;SDS011;5255;49.432;8.680;2022-07-23T14:52:26;6.60;;;5.88;;
10416;SDS011;5255;49.432;8.680;2022-07-23T14:54:54;6.47;;;5.43;;
10416;SDS011;5255;49.432;8.680;2022-07-23T14:57:27;6.63;;;5.93;;
10416;SDS011;5255;49.432;8.680;2022-07-23T14:59:55;6.63;;;5.88;;
10416;SDS011;5255;49.432;8.680;2022-07-23T15:02:23;6.90;;;5.05;;
10416;SDS011;5255;49.432;8.680;2022-07-23T15:04:51;5.72;;;4.90;;
10416;SDS011;5255;49.432;8.680;2022-07-23T15:07:18;6.10;;;5.50;;
10416;SDS011;5255;49.432;8.680;2022-07-23T15:09:45;6.03;;;5.43;;
10416;SDS011;5255;49.432;8.680;2022-07-23T15:12:12;8.18;;;5.35;;
10416;SDS011;5255;49.432;8.680;2022-07-23T15:14:39;7.10;;;4.97;;
10416;SDS011;5255;49.432;8.680;2022-07-23T15:17:07;6.07;;;5.32;;
10416;SDS011;5255;49.432;8.680;2022-07-23T15:19:36;6.07;;;5.47;;
10416;SDS011;5255;49.432;8.680;2022-07-23T15:22:03;7.38;;;5.63;;
10416;SDS011;5255;49.432;8.680;2022-07-23T15:24:31;5.97;;;5.38;;